DAOR/CBH METAR and TAF weather

Enter ICAO airport designator
Station Type Date Time Source
DAOR METAR 2018/01/16 09:00 UTC NOAA

DAOR 160900Z 05007KT CAVOK 10/M03 Q1028


Station Type Date Time Source
DAOR Decoded METAR 2018/01/16 09:00 UTC NOAA

Bechar, Algeria (DAOR) 31-37N 002-14W 773M
Jan 16, 2018 - 04:00 AM EST / 2018.01.16 0900 UTC
Wind: from the NE (050 degrees) at 8 MPH (7 KT):0
Visibility: greater than 7 mile(s):0
Temperature: 50 F (10 C)
Dew Point: 26 F (-3 C)
Relative Humidity: 39%
Pressure (altimeter): 30.36 in. Hg (1028 hPa)
ob: DAOR 160900Z 05007KT CAVOK 10/M03 Q1028
cycle: 9

Station Type Date Time Source
DAOR TAF 2017/11/09 18:03 UTC NOAA

TAF DAOR 091700Z 0918/1009 35010KT 6000 FEW033 SCT100
TEMPO 0918/0924 3000 BLSA PROB40
TEMPO 0918/0924 35020G35KT 2000 -TSRA FEW030CB


Example: see airport list